sensor_id;sensor_type;location;lat;lon;timestamp;temperature;humidity
24678;DHT22;12800;53.094;8.778;2022-12-18T00:01:04;-2.60;79.40
24678;DHT22;12800;53.094;8.778;2022-12-18T00:03:33;-2.60;79.40
24678;DHT22;12800;53.094;8.778;2022-12-18T00:05:59;-2.60;79.40
24678;DHT22;12800;53.094;8.778;2022-12-18T00:08:25;-2.60;79.40
24678;DHT22;12800;53.094;8.778;2022-12-18T00:10:50;-2.60;79.30
24678;DHT22;12800;53.094;8.778;2022-12-18T00:13:16;-2.60;79.40
24678;DHT22;12800;53.094;8.778;2022-12-18T00:15:42;-2.60;79.50
24678;DHT22;12800;53.094;8.778;2022-12-18T00:18:08;-2.60;79.30
24678;DHT22;12800;53.094;8.778;2022-12-18T00:20:38;-2.60;79.30
24678;DHT22;12800;53.094;8.778;2022-12-18T00:23:04;-2.60;79.20
24678;DHT22;12800;53.094;8.778;2022-12-18T00:25:32;-2.60;79.20
24678;DHT22;12800;53.094;8.778;2022-12-18T00:27:57;-2.70;79.10
24678;DHT22;12800;53.094;8.778;2022-12-18T00:30:23;-2.70;79.20
24678;DHT22;12800;53.094;8.778;2022-12-18T00:32:48;-2.70;79.10
24678;DHT22;12800;53.094;8.778;2022-12-18T00:35:14;-2.70;79.20
24678;DHT22;12800;53.094;8.778;2022-12-18T00:37:40;-2.70;79.20
24678;DHT22;12800;53.094;8.778;2022-12-18T00:40:06;-2.70;79.20
24678;DHT22;12800;53.094;8.778;2022-12-18T00:42:31;-2.70;79.20
24678;DHT22;12800;53.094;8.778;2022-12-18T00:45:16;-2.70;79.20
24678;DHT22;12800;53.094;8.778;2022-12-18T00:47:41;-2.80;79.20
24678;DHT22;12800;53.094;8.778;2022-12-18T00:50:08;-2.80;79.30
24678;DHT22;12800;53.094;8.778;2022-12-18T00:52:34;-2.80;79.40
24678;DHT22;12800;53.094;8.778;2022-12-18T00:55:00;-2.80;79.40
24678;DHT22;12800;53.094;8.778;2022-12-18T00:57:25;-2.80;79.40
24678;DHT22;12800;53.094;8.778;2022-12-18T00:59:51;-2.80;79.40
24678;DHT22;12800;53.094;8.778;2022-12-18T01:02:16;-2.70;79.50
24678;DHT22;12800;53.094;8.778;2022-12-18T01:04:42;-2.70;79.50
24678;DHT22;12800;53.094;8.778;2022-12-18T01:07:08;-2.70;79.50
24678;DHT22;12800;53.094;8.778;2022-12-18T01:09:33;-2.70;79.40
24678;DHT22;12800;53.094;8.778;2022-12-18T01:12:00;-2.70;79.30
24678;DHT22;12800;53.094;8.778;2022-12-18T01:14:25;-2.70;79.20
24678;DHT22;12800;53.094;8.778;2022-12-18T01:16:51;-2.70;79.20
24678;DHT22;12800;53.094;8.778;2022-12-18T01:19:16;-2.70;79.20
24678;DHT22;12800;53.094;8.778;2022-12-18T01:21:42;-2.70;79.10
24678;DHT22;12800;53.094;8.778;2022-12-18T01:24:09;-2.70;79.10
24678;DHT22;12800;53.094;8.778;2022-12-18T01:26:36;-2.70;79.20
24678;DHT22;12800;53.094;8.778;2022-12-18T01:29:02;-2.70;79.20
24678;DHT22;12800;53.094;8.778;2022-12-18T01:31:31;-2.70;79.30
24678;DHT22;12800;53.094;8.778;2022-12-18T01:33:57;-2.70;79.30
24678;DHT22;12800;53.094;8.778;2022-12-18T01:36:31;-2.70;79.30
24678;DHT22;12800;53.094;8.778;2022-12-18T01:39:20;-2.70;79.20
24678;DHT22;12800;53.094;8.778;2022-12-18T01:41:46;-2.70;79.20
24678;DHT22;12800;53.094;8.778;2022-12-18T01:49:49;-2.70;78.90
24678;DHT22;12800;53.094;8.778;2022-12-18T01:52:15;-2.70;79.00
24678;DHT22;12800;53.094;8.778;2022-12-18T01:54:42;-2.60;79.00
24678;DHT22;12800;53.094;8.778;2022-12-18T01:57:09;-2.60;79.00
24678;DHT22;12800;53.094;8.778;2022-12-18T01:59:35;-2.70;78.90
24678;DHT22;12800;53.094;8.778;2022-12-18T02:02:02;-2.60;78.90
24678;DHT22;12800;53.094;8.778;2022-12-18T02:04:28;-2.70;79.70
24678;DHT22;12800;53.094;8.778;2022-12-18T02:09:58;-2.60;78.90
24678;DHT22;12800;53.094;8.778;2022-12-18T02:12:30;-2.60;78.80
24678;DHT22;12800;53.094;8.778;2022-12-18T02:18:07;-2.60;78.70
24678;DHT22;12800;53.094;8.778;2022-12-18T02:20:36;-2.70;79.50
24678;DHT22;12800;53.094;8.778;2022-12-18T02:26:26;-2.60;78.80
24678;DHT22;12800;53.094;8.778;2022-12-18T02:28:56;-2.60;78.80
24678;DHT22;12800;53.094;8.778;2022-12-18T02:31:28;-2.60;78.70
24678;DHT22;12800;53.094;8.778;2022-12-18T02:33:57;-2.50;78.70
24678;DHT22;12800;53.094;8.778;2022-12-18T02:36:25;-2.60;78.50
24678;DHT22;12800;53.094;8.778;2022-12-18T02:38:53;-2.60;78.40
24678;DHT22;12800;53.094;8.778;2022-12-18T02:41:20;-2.60;78.40
24678;DHT22;12800;53.094;8.778;2022-12-18T02:43:52;-2.60;78.40
24678;DHT22;12800;53.094;8.778;2022-12-18T02:46:51;-2.60;78.40
24678;DHT22;12800;53.094;8.778;2022-12-18T02:49:31;-2.60;79.30
24678;DHT22;12800;53.094;8.778;2022-12-18T03:00:01;-2.60;78.40
24678;DHT22;12800;53.094;8.778;2022-12-18T03:05:24;-2.60;78.40
24678;DHT22;12800;53.094;8.778;2022-12-18T03:08:10;-2.60;78.30
24678;DHT22;12800;53.094;8.778;2022-12-18T03:10:44;-2.60;79.10
24678;DHT22;12800;53.094;8.778;2022-12-18T03:13:20;-2.60;78.20
24678;DHT22;12800;53.094;8.778;2022-12-18T03:15:51;-2.60;78.30
24678;DHT22;12800;53.094;8.778;2022-12-18T03:18:43;-2.60;78.20
24678;DHT22;12800;53.094;8.778;2022-12-18T03:21:11;-2.60;78.20
24678;DHT22;12800;53.094;8.778;2022-12-18T03:23:44;-2.60;78.10
24678;DHT22;12800;53.094;8.778;2022-12-18T03:26:19;-2.60;78.10
24678;DHT22;12800;53.094;8.778;2022-12-18T03:29:14;-2.60;78.10
24678;DHT22;12800;53.094;8.778;2022-12-18T03:31:40;-2.60;78.10
24678;DHT22;12800;53.094;8.778;2022-12-18T03:34:19;-2.60;78.20
24678;DHT22;12800;53.094;8.778;2022-12-18T03:36:47;-2.60;78.20
24678;DHT22;12800;53.094;8.778;2022-12-18T03:39:13;-2.60;78.10
24678;DHT22;12800;53.094;8.778;2022-12-18T03:44:53;-2.60;77.90
24678;DHT22;12800;53.094;8.778;2022-12-18T03:47:31;-2.60;78.00
24678;DHT22;12800;53.094;8.778;2022-12-18T03:50:23;-2.60;77.80
24678;DHT22;12800;53.094;8.778;2022-12-18T03:53:09;-2.70;77.80
24678;DHT22;12800;53.094;8.778;2022-12-18T03:55:40;-2.70;77.90
24678;DHT22;12800;53.094;8.778;2022-12-18T03:58:07;-2.70;77.90
24678;DHT22;12800;53.094;8.778;2022-12-18T04:00:34;-2.80;77.90
24678;DHT22;12800;53.094;8.778;2022-12-18T04:03:01;-2.80;77.90
24678;DHT22;12800;53.094;8.778;2022-12-18T04:05:28;-2.80;78.00
24678;DHT22;12800;53.094;8.778;2022-12-18T04:07:56;-2.90;77.90
24678;DHT22;12800;53.094;8.778;2022-12-18T04:10:22;-2.90;78.00
24678;DHT22;12800;53.094;8.778;2022-12-18T04:12:48;-2.90;78.10
24678;DHT22;12800;53.094;8.778;2022-12-18T04:15:14;-2.90;78.10
24678;DHT22;12800;53.094;8.778;2022-12-18T04:17:47;-2.90;78.10
24678;DHT22;12800;53.094;8.778;2022-12-18T04:20:14;-2.90;78.10
24678;DHT22;12800;53.094;8.778;2022-12-18T04:22:39;-2.90;78.10
24678;DHT22;12800;53.094;8.778;2022-12-18T04:25:05;-2.80;78.10
24678;DHT22;12800;53.094;8.778;2022-12-18T04:27:31;-2.80;78.10
24678;DHT22;12800;53.094;8.778;2022-12-18T04:29:56;-2.80;78.10
24678;DHT22;12800;53.094;8.778;2022-12-18T04:32:22;-2.70;78.10
24678;DHT22;12800;53.094;8.778;2022-12-18T04:34:48;-2.70;78.00
24678;DHT22;12800;53.094;8.778;2022-12-18T04:37:13;-2.70;77.90
24678;DHT22;12800;53.094;8.778;2022-12-18T04:39:39;-2.70;77.90
24678;DHT22;12800;53.094;8.778;2022-12-18T04:42:05;-2.70;77.70
24678;DHT22;12800;53.094;8.778;2022-12-18T04:44:30;-2.60;77.70
24678;DHT22;12800;53.094;8.778;2022-12-18T04:46:56;-2.60;77.70
24678;DHT22;12800;53.094;8.778;2022-12-18T04:49:22;-2.60;77.60
24678;DHT22;12800;53.094;8.778;2022-12-18T04:51:47;-2.60;77.60
24678;DHT22;12800;53.094;8.778;2022-12-18T04:54:13;-2.60;77.50
24678;DHT22;12800;53.094;8.778;2022-12-18T04:56:38;-2.60;77.50
24678;DHT22;12800;53.094;8.778;2022-12-18T04:59:05;-2.60;77.40
24678;DHT22;12800;53.094;8.778;2022-12-18T05:01:33;-2.60;77.40
24678;DHT22;12800;53.094;8.778;2022-12-18T05:03:59;-2.60;77.40
24678;DHT22;12800;53.094;8.778;2022-12-18T05:06:24;-2.60;77.30
24678;DHT22;12800;53.094;8.778;2022-12-18T05:08:50;-2.60;77.20
24678;DHT22;12800;53.094;8.778;2022-12-18T05:11:15;-2.60;77.20
24678;DHT22;12800;53.094;8.778;2022-12-18T05:13:42;-2.60;77.20
24678;DHT22;12800;53.094;8.778;2022-12-18T05:16:08;-2.60;77.10
24678;DHT22;12800;53.094;8.778;2022-12-18T05:18:34;-2.60;77.20
24678;DHT22;12800;53.094;8.778;2022-12-18T05:21:00;-2.60;77.10
24678;DHT22;12800;53.094;8.778;2022-12-18T05:23:26;-2.60;77.10
24678;DHT22;12800;53.094;8.778;2022-12-18T05:28:18;-2.70;77.10
24678;DHT22;12800;53.094;8.778;2022-12-18T05:30:50;-2.60;77.00
24678;DHT22;12800;53.094;8.778;2022-12-18T05:33:17;-2.70;76.80
24678;DHT22;12800;53.094;8.778;2022-12-18T05:35:43;-2.70;76.80
24678;DHT22;12800;53.094;8.778;2022-12-18T05:38:09;-2.80;76.70
24678;DHT22;12800;53.094;8.778;2022-12-18T05:40:35;-2.80;76.80
24678;DHT22;12800;53.094;8.778;2022-12-18T05:43:00;-2.90;76.80
24678;DHT22;12800;53.094;8.778;2022-12-18T05:45:26;-3.00;76.80
24678;DHT22;12800;53.094;8.778;2022-12-18T05:47:52;-3.00;76.80
24678;DHT22;12800;53.094;8.778;2022-12-18T05:50:17;-3.10;76.90
24678;DHT22;12800;53.094;8.778;2022-12-18T05:52:43;-3.20;76.90
24678;DHT22;12800;53.094;8.778;2022-12-18T05:55:08;-3.20;77.00
24678;DHT22;12800;53.094;8.778;2022-12-18T05:57:34;-3.20;77.10
24678;DHT22;12800;53.094;8.778;2022-12-18T06:00:00;-3.30;77.10
24678;DHT22;12800;53.094;8.778;2022-12-18T06:02:25;-3.30;77.20
24678;DHT22;12800;53.094;8.778;2022-12-18T06:04:51;-3.40;77.30
24678;DHT22;12800;53.094;8.778;2022-12-18T06:07:16;-3.40;77.50
24678;DHT22;12800;53.094;8.778;2022-12-18T06:09:42;-3.50;77.50
24678;DHT22;12800;53.094;8.778;2022-12-18T06:12:08;-3.40;77.60
24678;DHT22;12800;53.094;8.778;2022-12-18T06:14:34;-3.50;77.60
24678;DHT22;12800;53.094;8.778;2022-12-18T06:17:00;-3.40;77.70
24678;DHT22;12800;53.094;8.778;2022-12-18T06:19:25;-3.50;77.50
24678;DHT22;12800;53.094;8.778;2022-12-18T06:21:51;-3.50;77.50
24678;DHT22;12800;53.094;8.778;2022-12-18T06:24:16;-3.50;77.60
24678;DHT22;12800;53.094;8.778;2022-12-18T06:26:42;-3.50;77.60
24678;DHT22;12800;53.094;8.778;2022-12-18T06:29:08;-3.60;77.50
24678;DHT22;12800;53.094;8.778;2022-12-18T06:31:33;-3.60;77.70
24678;DHT22;12800;53.094;8.778;2022-12-18T06:34:02;-3.60;77.80
24678;DHT22;12800;53.094;8.778;2022-12-18T06:36:31;-3.60;77.80
24678;DHT22;12800;53.094;8.778;2022-12-18T06:38:58;-3.60;77.90
24678;DHT22;12800;53.094;8.778;2022-12-18T06:41:24;-3.70;77.90
24678;DHT22;12800;53.094;8.778;2022-12-18T06:43:50;-3.60;78.00
24678;DHT22;12800;53.094;8.778;2022-12-18T06:46:15;-3.70;78.00
24678;DHT22;12800;53.094;8.778;2022-12-18T06:48:41;-3.60;78.10
24678;DHT22;12800;53.094;8.778;2022-12-18T06:51:07;-3.70;78.00
24678;DHT22;12800;53.094;8.778;2022-12-18T06:53:33;-3.70;78.00
24678;DHT22;12800;53.094;8.778;2022-12-18T06:56:06;-3.70;78.10
24678;DHT22;12800;53.094;8.778;2022-12-18T06:58:32;-3.70;78.20
24678;DHT22;12800;53.094;8.778;2022-12-18T07:01:07;-3.60;78.30
24678;DHT22;12800;53.094;8.778;2022-12-18T07:03:33;-3.60;78.30
24678;DHT22;12800;53.094;8.778;2022-12-18T07:05:58;-3.60;78.20
24678;DHT22;12800;53.094;8.778;2022-12-18T07:08:25;-3.60;78.10
24678;DHT22;12800;53.094;8.778;2022-12-18T07:10:51;-3.60;78.10
24678;DHT22;12800;53.094;8.778;2022-12-18T07:13:17;-3.50;78.10
24678;DHT22;12800;53.094;8.778;2022-12-18T07:15:43;-3.50;78.20
24678;DHT22;12800;53.094;8.778;2022-12-18T07:18:09;-3.50;78.30
24678;DHT22;12800;53.094;8.778;2022-12-18T07:20:35;-3.50;78.20
24678;DHT22;12800;53.094;8.778;2022-12-18T07:23:04;-3.50;78.30
24678;DHT22;12800;53.094;8.778;2022-12-18T07:25:36;-3.40;78.20
24678;DHT22;12800;53.094;8.778;2022-12-18T07:28:03;-3.40;78.10
24678;DHT22;12800;53.094;8.778;2022-12-18T07:30:29;-3.30;79.00
24678;DHT22;12800;53.094;8.778;2022-12-18T07:32:54;-3.30;78.20
24678;DHT22;12800;53.094;8.778;2022-12-18T07:35:20;-3.20;78.20
24678;DHT22;12800;53.094;8.778;2022-12-18T07:37:45;-3.20;78.00
24678;DHT22;12800;53.094;8.778;2022-12-18T07:40:11;-3.20;78.70
24678;DHT22;12800;53.094;8.778;2022-12-18T07:42:37;-3.20;77.90
24678;DHT22;12800;53.094;8.778;2022-12-18T07:45:03;-3.20;77.70
24678;DHT22;12800;53.094;8.778;2022-12-18T07:47:35;-3.20;77.70
24678;DHT22;12800;53.094;8.778;2022-12-18T07:50:02;-3.20;77.70
24678;DHT22;12800;53.094;8.778;2022-12-18T07:52:28;-3.20;77.70
24678;DHT22;12800;53.094;8.778;2022-12-18T07:54:54;-3.20;77.80
24678;DHT22;12800;53.094;8.778;2022-12-18T07:57:20;-3.20;77.70
24678;DHT22;12800;53.094;8.778;2022-12-18T07:59:46;-3.20;77.70
24678;DHT22;12800;53.094;8.778;2022-12-18T08:02:11;-3.20;77.70
24678;DHT22;12800;53.094;8.778;2022-12-18T08:04:37;-3.20;77.70
24678;DHT22;12800;53.094;8.778;2022-12-18T08:07:03;-3.20;77.60
24678;DHT22;12800;53.094;8.778;2022-12-18T08:09:28;-3.20;77.60
24678;DHT22;12800;53.094;8.778;2022-12-18T08:11:54;-3.20;77.60
24678;DHT22;12800;53.094;8.778;2022-12-18T08:14:19;-3.20;77.60
24678;DHT22;12800;53.094;8.778;2022-12-18T08:16:45;-3.20;77.60
24678;DHT22;12800;53.094;8.778;2022-12-18T08:19:11;-3.20;77.50
24678;DHT22;12800;53.094;8.778;2022-12-18T08:21:37;-3.30;77.40
24678;DHT22;12800;53.094;8.778;2022-12-18T08:24:02;-3.30;77.50
24678;DHT22;12800;53.094;8.778;2022-12-18T08:26:30;-3.30;77.60
24678;DHT22;12800;53.094;8.778;2022-12-18T08:28:57;-3.30;77.60
24678;DHT22;12800;53.094;8.778;2022-12-18T08:31:24;-3.30;77.70
24678;DHT22;12800;53.094;8.778;2022-12-18T08:33:51;-3.30;77.60
24678;DHT22;12800;53.094;8.778;2022-12-18T08:36:18;-3.30;77.60
24678;DHT22;12800;53.094;8.778;2022-12-18T08:38:43;-3.30;77.70
24678;DHT22;12800;53.094;8.778;2022-12-18T08:41:11;-3.30;77.60
24678;DHT22;12800;53.094;8.778;2022-12-18T08:43:38;-3.30;77.70
24678;DHT22;12800;53.094;8.778;2022-12-18T08:46:24;-3.20;77.90
24678;DHT22;12800;53.094;8.778;2022-12-18T08:48:51;-3.20;77.90
24678;DHT22;12800;53.094;8.778;2022-12-18T08:51:17;-3.20;78.00
24678;DHT22;12800;53.094;8.778;2022-12-18T08:53:43;-3.10;78.00
24678;DHT22;12800;53.094;8.778;2022-12-18T08:56:10;-3.10;78.00
24678;DHT22;12800;53.094;8.778;2022-12-18T08:58:36;-3.10;77.90
24678;DHT22;12800;53.094;8.778;2022-12-18T09:01:02;-3.00;78.00
24678;DHT22;12800;53.094;8.778;2022-12-18T09:03:29;-3.00;78.90
24678;DHT22;12800;53.094;8.778;2022-12-18T09:05:54;-3.00;78.30
24678;DHT22;12800;53.094;8.778;2022-12-18T09:08:20;-2.90;78.40
24678;DHT22;12800;53.094;8.778;2022-12-18T09:10:48;-2.80;78.30
24678;DHT22;12800;53.094;8.778;2022-12-18T09:13:15;-2.80;78.30
24678;DHT22;12800;53.094;8.778;2022-12-18T09:15:47;-2.70;78.30
24678;DHT22;12800;53.094;8.778;2022-12-18T09:18:15;-2.70;78.20
24678;DHT22;12800;53.094;8.778;2022-12-18T09:20:41;-2.60;78.30
24678;DHT22;12800;53.094;8.778;2022-12-18T09:23:07;-2.60;78.10
24678;DHT22;12800;53.094;8.778;2022-12-18T09:25:33;-2.50;79.00
24678;DHT22;12800;53.094;8.778;2022-12-18T09:28:06;-2.40;78.20
24678;DHT22;12800;53.094;8.778;2022-12-18T09:30:32;-2.40;78.10
24678;DHT22;12800;53.094;8.778;2022-12-18T09:33:00;-2.30;77.90
24678;DHT22;12800;53.094;8.778;2022-12-18T09:35:25;-2.30;77.80
24678;DHT22;12800;53.094;8.778;2022-12-18T09:37:53;-2.20;77.80
24678;DHT22;12800;53.094;8.778;2022-12-18T09:40:22;-2.20;77.80
24678;DHT22;12800;53.094;8.778;2022-12-18T09:42:53;-2.20;77.60
24678;DHT22;12800;53.094;8.778;2022-12-18T09:45:21;-2.20;77.60
24678;DHT22;12800;53.094;8.778;2022-12-18T09:47:48;-2.10;77.70
24678;DHT22;12800;53.094;8.778;2022-12-18T09:50:34;-2.10;77.70
24678;DHT22;12800;53.094;8.778;2022-12-18T09:53:07;-2.00;77.80
24678;DHT22;12800;53.094;8.778;2022-12-18T09:55:41;-2.00;77.60
24678;DHT22;12800;53.094;8.778;2022-12-18T09:58:28;-2.00;77.50
24678;DHT22;12800;53.094;8.778;2022-12-18T10:00:55;-1.90;77.50
24678;DHT22;12800;53.094;8.778;2022-12-18T10:03:21;-1.90;77.30
24678;DHT22;12800;53.094;8.778;2022-12-18T10:11:32;-1.90;77.20
24678;DHT22;12800;53.094;8.778;2022-12-18T10:14:23;-1.90;77.20
24678;DHT22;12800;53.094;8.778;2022-12-18T10:20:10;-1.80;77.40
24678;DHT22;12800;53.094;8.778;2022-12-18T10:22:48;-1.80;77.30
24678;DHT22;12800;53.094;8.778;2022-12-18T10:28:14;-1.70;77.50
24678;DHT22;12800;53.094;8.778;2022-12-18T10:30:41;-1.70;77.30
24678;DHT22;12800;53.094;8.778;2022-12-18T10:33:16;-1.70;77.40
24678;DHT22;12800;53.094;8.778;2022-12-18T10:35:42;-1.60;77.40
24678;DHT22;12800;53.094;8.778;2022-12-18T10:40:53;-1.60;77.30
24678;DHT22;12800;53.094;8.778;2022-12-18T10:43:23;-1.60;77.40
24678;DHT22;12800;53.094;8.778;2022-12-18T10:45:59;-1.60;77.40
24678;DHT22;12800;53.094;8.778;2022-12-18T10:48:25;-1.60;77.20
24678;DHT22;12800;53.094;8.778;2022-12-18T10:50:52;-1.50;77.30
24678;DHT22;12800;53.094;8.778;2022-12-18T10:53:27;-1.50;77.30
24678;DHT22;12800;53.094;8.778;2022-12-18T10:55:55;-1.50;77.30
24678;DHT22;12800;53.094;8.778;2022-12-18T11:01:16;-1.50;77.30
24678;DHT22;12800;53.094;8.778;2022-12-18T11:03:43;-1.50;77.30
24678;DHT22;12800;53.094;8.778;2022-12-18T11:06:11;-1.40;77.60
24678;DHT22;12800;53.094;8.778;2022-12-18T11:08:38;-1.40;77.50
24678;DHT22;12800;53.094;8.778;2022-12-18T11:11:09;-1.40;77.50
24678;DHT22;12800;53.094;8.778;2022-12-18T11:13:40;-1.30;77.50
24678;DHT22;12800;53.094;8.778;2022-12-18T11:16:06;-1.30;77.50
24678;DHT22;12800;53.094;8.778;2022-12-18T11:18:35;-1.30;77.40
24678;DHT22;12800;53.094;8.778;2022-12-18T11:21:12;-1.20;77.60
24678;DHT22;12800;53.094;8.778;2022-12-18T11:23:48;-1.20;77.60
24678;DHT22;12800;53.094;8.778;2022-12-18T11:26:14;-1.10;77.50
24678;DHT22;12800;53.094;8.778;2022-12-18T11:28:50;-1.10;77.50
24678;DHT22;12800;53.094;8.778;2022-12-18T11:31:29;-1.00;77.60
24678;DHT22;12800;53.094;8.778;2022-12-18T11:36:38;-0.90;77.50
24678;DHT22;12800;53.094;8.778;2022-12-18T11:45:02;-0.60;77.50
24678;DHT22;12800;53.094;8.778;2022-12-18T11:50:32;-0.30;77.30
24678;DHT22;12800;53.094;8.778;2022-12-18T11:52:59;-0.10;77.30
24678;DHT22;12800;53.094;8.778;2022-12-18T11:55:49;0.10;77.00
24678;DHT22;12800;53.094;8.778;2022-12-18T12:04:17;0.20;76.40
24678;DHT22;12800;53.094;8.778;2022-12-18T12:07:21;0.20;76.20
24678;DHT22;12800;53.094;8.778;2022-12-18T12:15:33;0.30;76.00
24678;DHT22;12800;53.094;8.778;2022-12-18T12:21:16;0.30;76.00
24678;DHT22;12800;53.094;8.778;2022-12-18T12:26:44;0.30;76.20
24678;DHT22;12800;53.094;8.778;2022-12-18T12:32:15;0.30;76.10
24678;DHT22;12800;53.094;8.778;2022-12-18T12:37:33;0.30;76.20
24678;DHT22;12800;53.094;8.778;2022-12-18T12:40:03;0.30;76.10
24678;DHT22;12800;53.094;8.778;2022-12-18T12:42:49;0.30;76.00
24678;DHT22;12800;53.094;8.778;2022-12-18T12:48:42;0.20;76.20
24678;DHT22;12800;53.094;8.778;2022-12-18T12:53:43;0.20;76.40
24678;DHT22;12800;53.094;8.778;2022-12-18T12:56:12;0.20;76.30
24678;DHT22;12800;53.094;8.778;2022-12-18T12:59:11;0.10;76.30
24678;DHT22;12800;53.094;8.778;2022-12-18T13:01:43;0.10;76.50
24678;DHT22;12800;53.094;8.778;2022-12-18T13:10:12;0.00;76.80
24678;DHT22;12800;53.094;8.778;2022-12-18T13:13:14;0.00;76.90
24678;DHT22;12800;53.094;8.778;2022-12-18T13:15:48;0.10;77.00
24678;DHT22;12800;53.094;8.778;2022-12-18T13:18:16;0.10;77.00
24678;DHT22;12800;53.094;8.778;2022-12-18T13:21:05;0.10;77.00
24678;DHT22;12800;53.094;8.778;2022-12-18T13:23:40;0.10;76.90
24678;DHT22;12800;53.094;8.778;2022-12-18T13:30:59;0.10;76.80
24678;DHT22;12800;53.094;8.778;2022-12-18T13:36:00;0.10;77.00
24678;DHT22;12800;53.094;8.778;2022-12-18T13:43:46;0.10;76.90
24678;DHT22;12800;53.094;8.778;2022-12-18T13:51:49;0.10;76.70
24678;DHT22;12800;53.094;8.778;2022-12-18T13:54:20;0.00;77.50
24678;DHT22;12800;53.094;8.778;2022-12-18T13:56:48;0.00;76.90
24678;DHT22;12800;53.094;8.778;2022-12-18T13:59:34;0.00;76.90
24678;DHT22;12800;53.094;8.778;2022-12-18T14:02:11;0.00;77.00
24678;DHT22;12800;53.094;8.778;2022-12-18T14:04:38;0.00;77.10
24678;DHT22;12800;53.094;8.778;2022-12-18T14:07:06;0.00;77.20
24678;DHT22;12800;53.094;8.778;2022-12-18T14:09:39;0.00;77.30
24678;DHT22;12800;53.094;8.778;2022-12-18T14:12:06;0.00;77.30
24678;DHT22;12800;53.094;8.778;2022-12-18T14:14:51;0.10;77.30
24678;DHT22;12800;53.094;8.778;2022-12-18T14:17:18;0.10;77.10
24678;DHT22;12800;53.094;8.778;2022-12-18T14:19:50;0.10;77.10
24678;DHT22;12800;53.094;8.778;2022-12-18T14:22:25;0.10;77.00
24678;DHT22;12800;53.094;8.778;2022-12-18T14:25:23;0.10;77.00
24678;DHT22;12800;53.094;8.778;2022-12-18T14:28:12;0.10;76.80
24678;DHT22;12800;53.094;8.778;2022-12-18T14:30:41;0.10;76.80
24678;DHT22;12800;53.094;8.778;2022-12-18T14:33:16;0.10;76.70
24678;DHT22;12800;53.094;8.778;2022-12-18T14:36:02;0.10;76.60
24678;DHT22;12800;53.094;8.778;2022-12-18T14:41:02;0.20;76.60
24678;DHT22;12800;53.094;8.778;2022-12-18T14:43:33;0.10;76.50
24678;DHT22;12800;53.094;8.778;2022-12-18T14:46:00;0.10;76.50
24678;DHT22;12800;53.094;8.778;2022-12-18T14:48:38;0.10;76.40
24678;DHT22;12800;53.094;8.778;2022-12-18T14:58:52;0.00;76.40
24678;DHT22;12800;53.094;8.778;2022-12-18T15:01:30;0.00;76.40
24678;DHT22;12800;53.094;8.778;2022-12-18T15:03:58;0.00;76.40
24678;DHT22;12800;53.094;8.778;2022-12-18T15:06:34;0.00;76.50
24678;DHT22;12800;53.094;8.778;2022-12-18T15:09:03;0.00;76.50
24678;DHT22;12800;53.094;8.778;2022-12-18T15:14:41;0.00;76.40
24678;DHT22;12800;53.094;8.778;2022-12-18T15:17:20;0.00;76.20
24678;DHT22;12800;53.094;8.778;2022-12-18T15:19:48;0.00;76.20
24678;DHT22;12800;53.094;8.778;2022-12-18T15:22:41;0.00;76.20
24678;DHT22;12800;53.094;8.778;2022-12-18T15:27:55;-0.10;76.10
24678;DHT22;12800;53.094;8.778;2022-12-18T15:30:23;-0.10;76.10
24678;DHT22;12800;53.094;8.778;2022-12-18T15:32:49;-0.10;76.00
24678;DHT22;12800;53.094;8.778;2022-12-18T15:35:16;0.00;76.10
24678;DHT22;12800;53.094;8.778;2022-12-18T15:37:43;-0.10;75.90
24678;DHT22;12800;53.094;8.778;2022-12-18T15:40:20;-0.10;75.80
24678;DHT22;12800;53.094;8.778;2022-12-18T15:42:47;-0.10;75.80
24678;DHT22;12800;53.094;8.778;2022-12-18T15:45:32;-0.10;75.70
24678;DHT22;12800;53.094;8.778;2022-12-18T15:47:58;0.00;75.70
24678;DHT22;12800;53.094;8.778;2022-12-18T15:50:24;0.00;75.60
24678;DHT22;12800;53.094;8.778;2022-12-18T15:52:52;0.00;75.50
24678;DHT22;12800;53.094;8.778;2022-12-18T15:55:21;0.00;75.50
24678;DHT22;12800;53.094;8.778;2022-12-18T15:58:07;0.00;75.40
24678;DHT22;12800;53.094;8.778;2022-12-18T16:00:35;0.00;75.20
24678;DHT22;12800;53.094;8.778;2022-12-18T16:03:02;0.00;75.20
24678;DHT22;12800;53.094;8.778;2022-12-18T16:05:28;0.10;75.10
24678;DHT22;12800;53.094;8.778;2022-12-18T16:07:54;0.10;75.00
24678;DHT22;12800;53.094;8.778;2022-12-18T16:10:20;0.10;74.80
24678;DHT22;12800;53.094;8.778;2022-12-18T16:12:46;0.10;74.70
24678;DHT22;12800;53.094;8.778;2022-12-18T16:15:15;0.10;74.60
24678;DHT22;12800;53.094;8.778;2022-12-18T16:17:45;0.10;74.60
24678;DHT22;12800;53.094;8.778;2022-12-18T16:20:21;0.10;74.50
24678;DHT22;12800;53.094;8.778;2022-12-18T16:22:48;0.10;74.60
24678;DHT22;12800;53.094;8.778;2022-12-18T16:25:26;0.10;74.40
24678;DHT22;12800;53.094;8.778;2022-12-18T16:27:52;0.10;74.30
24678;DHT22;12800;53.094;8.778;2022-12-18T16:30:22;0.10;74.20
24678;DHT22;12800;53.094;8.778;2022-12-18T16:32:48;0.10;74.10
24678;DHT22;12800;53.094;8.778;2022-12-18T16:35:17;0.10;74.00
24678;DHT22;12800;53.094;8.778;2022-12-18T16:37:43;0.10;73.90
24678;DHT22;12800;53.094;8.778;2022-12-18T16:40:11;0.10;73.90
24678;DHT22;12800;53.094;8.778;2022-12-18T16:42:39;0.10;73.90
24678;DHT22;12800;53.094;8.778;2022-12-18T16:45:06;0.10;73.80
24678;DHT22;12800;53.094;8.778;2022-12-18T16:47:33;0.20;73.80
24678;DHT22;12800;53.094;8.778;2022-12-18T16:49:58;0.20;73.70
24678;DHT22;12800;53.094;8.778;2022-12-18T16:52:24;0.20;73.60
24678;DHT22;12800;53.094;8.778;2022-12-18T16:54:50;0.20;73.40
24678;DHT22;12800;53.094;8.778;2022-12-18T16:57:18;0.20;73.40
24678;DHT22;12800;53.094;8.778;2022-12-18T16:59:44;0.10;73.30
24678;DHT22;12800;53.094;8.778;2022-12-18T17:02:18;0.10;73.30
24678;DHT22;12800;53.094;8.778;2022-12-18T17:04:44;0.10;73.40
24678;DHT22;12800;53.094;8.778;2022-12-18T17:07:11;0.10;73.30
24678;DHT22;12800;53.094;8.778;2022-12-18T17:09:37;0.00;73.40
24678;DHT22;12800;53.094;8.778;2022-12-18T17:12:03;0.00;73.50
24678;DHT22;12800;53.094;8.778;2022-12-18T17:14:29;0.00;73.60
24678;DHT22;12800;53.094;8.778;2022-12-18T17:16:55;0.00;73.40
24678;DHT22;12800;53.094;8.778;2022-12-18T17:19:25;0.00;73.50
24678;DHT22;12800;53.094;8.778;2022-12-18T17:21:51;0.00;73.50
24678;DHT22;12800;53.094;8.778;2022-12-18T17:24:17;0.00;73.60
24678;DHT22;12800;53.094;8.778;2022-12-18T17:26:43;0.00;73.60
24678;DHT22;12800;53.094;8.778;2022-12-18T17:29:12;0.10;73.70
24678;DHT22;12800;53.094;8.778;2022-12-18T17:31:38;0.00;73.70
24678;DHT22;12800;53.094;8.778;2022-12-18T17:34:04;0.00;73.70
24678;DHT22;12800;53.094;8.778;2022-12-18T17:36:30;0.00;73.60
24678;DHT22;12800;53.094;8.778;2022-12-18T17:38:58;-0.10;73.60
24678;DHT22;12800;53.094;8.778;2022-12-18T17:41:25;-0.10;73.80
24678;DHT22;12800;53.094;8.778;2022-12-18T17:43:56;-0.10;74.00
24678;DHT22;12800;53.094;8.778;2022-12-18T17:46:23;-0.10;73.90
24678;DHT22;12800;53.094;8.778;2022-12-18T17:48:50;-0.10;74.00
24678;DHT22;12800;53.094;8.778;2022-12-18T17:51:16;-0.10;74.00
24678;DHT22;12800;53.094;8.778;2022-12-18T17:53:43;-0.10;74.00
24678;DHT22;12800;53.094;8.778;2022-12-18T17:56:11;-0.10;74.10
24678;DHT22;12800;53.094;8.778;2022-12-18T17:58:38;-0.10;74.20